createdAt,value
2022-10-12T00:30:59.189Z,0
2022-10-12T00:31:39.694Z,0
2022-10-12T00:32:20.133Z,0
2022-10-12T00:33:00.594Z,0
2022-10-12T00:33:41.140Z,0
2022-10-12T00:34:21.588Z,0
2022-10-12T00:35:02.150Z,0
2022-10-12T00:35:42.617Z,0
2022-10-12T00:36:23.132Z,0
2022-10-12T00:37:03.568Z,0
2022-10-12T00:44:29.550Z,0
2022-10-12T00:45:10.031Z,0
2022-10-12T00:45:50.582Z,0
2022-10-12T00:46:31.081Z,0
2022-10-12T00:47:11.568Z,0
2022-10-12T00:47:52.068Z,0
2022-10-12T00:48:32.555Z,0
2022-10-12T00:49:13.041Z,0
2022-10-12T00:49:53.543Z,0
2022-10-12T00:55:58.890Z,0
2022-10-12T00:56:39.389Z,0
2022-10-12T00:57:19.903Z,0
2022-10-12T00:58:00.389Z,0
2022-10-12T00:58:40.999Z,0
2022-10-12T00:59:21.448Z,0
2022-10-12T01:00:01.933Z,0
2022-10-12T01:00:42.425Z,0
2022-10-12T01:01:22.922Z,0
2022-10-12T01:02:03.352Z,0
2022-10-12T01:02:43.833Z,0
2022-10-12T01:10:09.087Z,0
2022-10-12T01:10:49.521Z,0
2022-10-12T01:11:30.053Z,0
2022-10-12T01:12:10.530Z,0
2022-10-12T01:12:51.061Z,0
2022-10-12T01:13:31.481Z,0
2022-10-12T01:14:11.957Z,0
2022-10-12T01:14:52.474Z,0
2022-10-12T01:15:32.887Z,0
2022-10-12T01:16:13.402Z,0
2022-10-12T01:16:53.888Z,0
2022-10-12T01:23:38.715Z,0
2022-10-12T01:24:19.172Z,0
2022-10-12T01:24:59.662Z,0
2022-10-12T01:25:40.173Z,0
2022-10-12T01:26:20.647Z,0
2022-10-12T01:27:01.053Z,0
2022-10-12T01:27:41.530Z,0
2022-10-12T01:28:22.120Z,0
2022-10-12T01:29:02.513Z,0
2022-10-12T01:30:23.518Z,0
2022-10-12T01:37:48.798Z,0
2022-10-12T01:38:29.266Z,0
2022-10-12T01:39:09.743Z,0
2022-10-12T01:39:50.255Z,0
2022-10-12T01:40:30.648Z,0
2022-10-12T01:41:11.118Z,0
2022-10-12T01:41:51.605Z,0
2022-10-12T01:43:12.543Z,0
2022-10-12T01:43:53.028Z,0
2022-10-12T01:44:33.547Z,0
2022-10-12T01:51:58.815Z,0
2022-10-12T01:52:39.282Z,0
2022-10-12T01:53:19.735Z,0
2022-10-12T01:54:00.182Z,0
2022-10-12T01:54:40.674Z,0
2022-10-12T01:55:21.202Z,0
2022-10-12T01:56:01.692Z,0
2022-10-12T01:56:42.172Z,0
2022-10-12T01:57:22.682Z,0
2022-10-12T01:58:03.110Z,0
2022-10-12T01:58:43.537Z,0
2022-10-12T02:06:08.911Z,0
2022-10-12T02:06:49.436Z,0
2022-10-12T02:07:29.867Z,0
2022-10-12T02:08:10.363Z,0
2022-10-12T02:09:31.305Z,0
2022-10-12T02:10:11.857Z,0
2022-10-12T02:10:52.457Z,0
2022-10-12T02:11:32.893Z,0
2022-10-12T02:12:13.359Z,0
2022-10-12T02:12:53.859Z,0
2022-10-12T02:19:38.812Z,0
2022-10-12T02:20:19.282Z,0
2022-10-12T02:20:59.778Z,0
2022-10-12T02:21:40.289Z,0
2022-10-12T02:22:20.706Z,0
2022-10-12T02:23:01.185Z,0
2022-10-12T02:23:41.643Z,0
2022-10-12T02:24:22.100Z,0
2022-10-12T02:25:02.637Z,0
2022-10-12T02:25:43.092Z,0
2022-10-12T02:26:23.781Z,0
2022-10-12T02:33:08.647Z,0
2022-10-12T02:33:49.118Z,0
2022-10-12T02:34:29.611Z,0
2022-10-12T02:35:10.094Z,0
2022-10-12T02:35:50.528Z,0
2022-10-12T02:36:30.999Z,0
2022-10-12T02:37:11.459Z,0
2022-10-12T02:37:51.957Z,0
2022-10-12T02:38:32.449Z,0
2022-10-12T02:39:12.893Z,0
2022-10-12T02:39:53.394Z,0
2022-10-12T02:40:33.936Z,0
2022-10-12T02:47:18.739Z,0
2022-10-12T02:47:59.321Z,0
2022-10-12T02:48:39.727Z,0
2022-10-12T02:49:20.187Z,0
2022-10-12T02:50:00.623Z,0
2022-10-12T02:50:41.163Z,0
2022-10-12T02:51:21.595Z,0
2022-10-12T02:52:02.101Z,0
2022-10-12T02:52:42.510Z,0
2022-10-12T02:53:22.965Z,0
2022-10-12T02:54:03.472Z,0
2022-10-12T03:01:28.720Z,0
2022-10-12T03:02:09.156Z,0
2022-10-12T03:02:49.779Z,0
2022-10-12T03:03:30.206Z,0
2022-10-12T03:04:10.660Z,0
2022-10-12T03:04:51.154Z,0
2022-10-12T03:05:31.652Z,0
2022-10-12T03:06:12.806Z,0
2022-10-12T03:06:53.255Z,0
2022-10-12T03:07:33.754Z,0
2022-10-12T03:14:59.014Z,0
2022-10-12T03:15:39.486Z,0
2022-10-12T03:16:20.026Z,0
2022-10-12T03:17:00.463Z,0
2022-10-12T03:17:40.968Z,0
2022-10-12T03:18:21.463Z,0
2022-10-12T03:19:01.889Z,0
2022-10-12T03:19:42.425Z,0
2022-10-12T03:20:22.868Z,0
2022-10-12T03:21:03.411Z,0
2022-10-12T03:21:43.920Z,0
2022-10-12T03:29:09.129Z,0
2022-10-12T03:29:49.541Z,0
2022-10-12T03:30:30.036Z,0
2022-10-12T03:31:10.503Z,0
2022-10-12T03:31:51.025Z,0
2022-10-12T03:32:31.426Z,0
2022-10-12T03:33:11.910Z,0
2022-10-12T03:33:52.393Z,0
2022-10-12T03:34:32.870Z,0
2022-10-12T03:35:13.351Z,0
2022-10-12T03:35:53.839Z,0
2022-10-12T03:42:38.620Z,0
2022-10-12T03:43:19.074Z,0
2022-10-12T03:43:59.607Z,0
2022-10-12T03:44:40.063Z,0
2022-10-12T03:45:20.514Z,0
2022-10-12T03:46:01.006Z,0
2022-10-12T03:46:41.655Z,0
2022-10-12T03:47:22.151Z,0
2022-10-12T03:48:05.046Z,0
2022-10-12T03:48:43.103Z,0
2022-10-12T03:49:23.650Z,0
2022-10-12T03:56:49.049Z,0
2022-10-12T03:57:29.489Z,0
2022-10-12T03:58:09.954Z,0
2022-10-12T03:58:50.426Z,0
2022-10-12T03:59:30.880Z,0
2022-10-12T04:00:11.395Z,0
2022-10-12T04:00:51.855Z,0
2022-10-12T04:01:32.457Z,0
2022-10-12T04:02:16.623Z,0
2022-10-12T04:02:53.427Z,0
2022-10-12T04:03:33.776Z,0
2022-10-12T04:10:18.647Z,0
2022-10-12T04:10:59.182Z,0
2022-10-12T04:11:39.617Z,0
2022-10-12T04:12:20.113Z,0
2022-10-12T04:13:00.574Z,0
2022-10-12T04:13:41.102Z,0
2022-10-12T04:16:01.519Z,0
2022-10-12T04:16:40.585Z,0
2022-10-12T04:17:21.049Z,0
2022-10-12T04:18:01.487Z,0
2022-10-12T04:20:43.799Z,0
2022-10-12T04:21:24.388Z,0
2022-10-12T04:22:04.993Z,0
2022-10-12T04:22:45.418Z,0
2022-10-12T04:23:25.873Z,0
2022-10-12T04:24:08.173Z,0
2022-10-12T04:31:33.892Z,0
2022-10-12T04:32:14.362Z,0
2022-10-12T04:32:54.800Z,0
2022-10-12T04:33:35.390Z,0
2022-10-12T04:34:15.988Z,0
2022-10-12T04:34:56.471Z,0
2022-10-12T04:35:36.968Z,0
2022-10-12T04:36:17.451Z,0
2022-10-12T04:36:57.897Z,0
2022-10-12T04:37:38.725Z,0
2022-10-12T04:45:03.868Z,0
2022-10-12T04:45:44.388Z,0
2022-10-12T04:46:24.891Z,0
2022-10-12T04:47:05.305Z,0
2022-10-12T04:47:45.759Z,0
2022-10-12T04:48:26.256Z,0
2022-10-12T04:49:06.768Z,0
2022-10-12T04:49:47.203Z,0
2022-10-12T04:50:30.118Z,0
2022-10-12T04:51:08.104Z,0
2022-10-12T04:55:13.570Z,0
2022-10-12T04:55:54.012Z,0
2022-10-12T04:56:34.470Z,0
2022-10-12T04:57:15.056Z,0
2022-10-12T04:57:55.606Z,0
2022-10-12T04:58:36.073Z,0
2022-10-12T04:59:16.636Z,0
2022-10-12T04:59:57.157Z,0
2022-10-12T05:00:37.596Z,0
2022-10-12T05:01:18.154Z,0
2022-10-12T05:01:58.700Z,0
2022-10-12T05:08:03.726Z,0
2022-10-12T05:08:44.745Z,0
2022-10-12T05:09:25.286Z,0
2022-10-12T05:10:05.782Z,0
2022-10-12T05:10:46.296Z,0
2022-10-12T05:11:26.755Z,0
2022-10-12T05:12:07.207Z,0
2022-10-12T05:12:47.668Z,0
2022-10-12T05:13:28.202Z,0
2022-10-12T05:14:08.817Z,0
2022-10-12T05:19:33.819Z,0
2022-10-12T05:20:14.369Z,0
2022-10-12T05:20:57.120Z,0
2022-10-12T05:21:35.249Z,4
2022-10-12T05:22:15.777Z,4
2022-10-12T05:22:56.163Z,0
2022-10-12T05:23:36.752Z,0
2022-10-12T05:24:17.218Z,4
2022-10-12T05:24:58.182Z,0
2022-10-12T05:25:38.831Z,0
2022-10-12T05:29:03.865Z,4
2022-10-12T05:29:45.049Z,4
2022-10-12T05:30:25.455Z,4
2022-10-12T05:31:06.330Z,4
2022-10-12T05:31:46.871Z,4
2022-10-12T05:33:07.793Z,8
2022-10-12T05:33:48.302Z,8
2022-10-12T05:39:13.531Z,20
2022-10-12T05:39:54.152Z,20
2022-10-12T05:40:34.640Z,28
2022-10-12T05:41:15.239Z,28
2022-10-12T05:41:56.987Z,32
2022-10-12T05:42:37.993Z,32
2022-10-12T05:43:18.210Z,36
2022-10-12T05:43:58.707Z,36
2022-10-12T05:50:44.009Z,80
2022-10-12T05:51:28.695Z,80
2022-10-12T05:52:04.988Z,88
2022-10-12T05:52:45.698Z,92
2022-10-12T06:32:12.351Z,1524
2022-10-12T06:39:10.320Z,4232
2022-10-12T06:39:51.103Z,4500
2022-10-12T06:40:31.977Z,4788
2022-10-12T06:41:12.738Z,5160
2022-10-12T06:41:53.466Z,5388
2022-10-12T06:47:19.387Z,4160
2022-10-12T06:47:59.649Z,4128
2022-10-12T06:48:40.584Z,4216
2022-10-12T06:49:20.892Z,4364
2022-10-12T06:50:01.576Z,4548
2022-10-12T06:50:42.196Z,4580
2022-10-12T06:51:22.734Z,4552
2022-10-12T06:52:03.277Z,4336
2022-10-12T06:58:08.622Z,3128
2022-10-12T06:58:49.110Z,3272
2022-10-12T06:59:29.961Z,3592
2022-10-12T07:00:11.101Z,3660
2022-10-12T07:00:51.443Z,3688
2022-10-12T07:01:32.566Z,3708
2022-10-12T07:05:39.646Z,3776
2022-10-12T07:06:20.455Z,3824
2022-10-12T07:07:01.189Z,3944
2022-10-12T07:07:41.878Z,4016
2022-10-12T07:08:26.037Z,4032
2022-10-12T07:09:06.686Z,3972
2022-10-12T07:09:52.191Z,3884
2022-10-12T07:10:32.610Z,3584
2022-10-12T07:11:13.178Z,3228
2022-10-12T07:15:58.432Z,3832
2022-10-12T07:16:39.426Z,3720
2022-10-12T07:17:20.359Z,3736
2022-10-12T07:18:01.103Z,3820
2022-10-12T07:18:41.621Z,3452
2022-10-12T07:19:22.328Z,3600
2022-10-12T07:20:03.175Z,3852
2022-10-12T07:22:50.045Z,3288
2022-10-12T07:23:30.847Z,3164
2022-10-12T07:24:11.592Z,3092
2022-10-12T07:24:52.185Z,3052
2022-10-12T07:27:00.709Z,2324
2022-10-12T07:34:28.133Z,1568
2022-10-12T07:38:39.757Z,1508
2022-10-12T07:39:22.469Z,1504
2022-10-12T07:40:07.035Z,1488
2022-10-12T07:43:43.910Z,1444
2022-10-12T07:44:24.329Z,1436
2022-10-12T07:45:04.764Z,1428
2022-10-12T07:45:45.287Z,1424
2022-10-12T07:46:26.391Z,1420
2022-10-12T07:47:06.895Z,1412
2022-10-12T07:47:47.446Z,1412
2022-10-12T07:48:28.875Z,1412
2022-10-12T07:53:13.111Z,1380
2022-10-12T07:53:53.684Z,1384
2022-10-12T07:54:34.327Z,1380
2022-10-12T07:55:15.055Z,1376
2022-10-12T07:55:55.645Z,1356
2022-10-12T07:56:36.285Z,1376
2022-10-12T07:57:16.653Z,1372
2022-10-12T07:57:57.241Z,1376
2022-10-12T07:58:37.945Z,1376
2022-10-12T08:03:16.334Z,1432
2022-10-12T08:04:01.121Z,1448
2022-10-12T08:04:38.812Z,1472
2022-10-12T08:05:19.860Z,1484
2022-10-12T08:09:24.275Z,1484
2022-10-12T08:10:04.860Z,1480
2022-10-12T08:10:45.598Z,1468
2022-10-12T08:11:26.680Z,1468
2022-10-12T08:19:56.051Z,1456
2022-10-12T08:20:36.918Z,1416
2022-10-12T08:21:17.460Z,1248
2022-10-12T08:21:58.839Z,1252
2022-10-12T08:22:39.588Z,1208
2022-10-12T08:26:04.990Z,1192
2022-10-12T08:26:45.226Z,1204
2022-10-12T08:27:25.738Z,1308
2022-10-12T08:28:06.398Z,1352
2022-10-12T08:28:47.201Z,1388
2022-10-12T08:30:54.076Z,1348
2022-10-12T08:31:34.641Z,1292
2022-10-12T08:32:15.488Z,1284
2022-10-12T08:32:55.837Z,1284
2022-10-12T08:33:36.602Z,1284
2022-10-12T08:43:40.092Z,1472
2022-10-12T08:50:22.181Z,1372
2022-10-12T08:51:03.774Z,1328
2022-10-12T08:51:44.373Z,1296
2022-10-12T08:52:24.791Z,1292
2022-10-12T08:53:05.603Z,1364
2022-10-12T08:53:47.156Z,1480
2022-10-12T08:55:51.520Z,1380
2022-10-12T08:56:32.376Z,1508
2022-10-12T08:57:13.008Z,1556
2022-10-12T09:09:20.278Z,1420
2022-10-12T09:13:08.844Z,1496
2022-10-12T09:13:50.982Z,1576
2022-10-12T09:14:32.739Z,1560
2022-10-12T09:15:14.345Z,1544
2022-10-12T09:16:36.846Z,1512
2022-10-12T09:17:17.984Z,1552
2022-10-12T09:22:09.208Z,1800
2022-10-12T09:22:50.736Z,1848
2022-10-12T09:23:31.562Z,1784
2022-10-12T09:24:12.723Z,1776
2022-10-12T09:28:18.078Z,1892
2022-10-12T09:28:59.603Z,1848
2022-10-12T09:29:41.172Z,1764
2022-10-12T09:30:22.222Z,1708
2022-10-12T09:31:02.704Z,1700
2022-10-12T09:31:43.306Z,1700
2022-10-12T09:44:07.840Z,1960
2022-10-12T09:44:48.731Z,2004
2022-10-12T09:45:29.718Z,2028
2022-10-12T09:46:10.803Z,2048
2022-10-12T09:46:51.882Z,2060
2022-10-12T09:47:33.444Z,2040
2022-10-12T09:50:17.883Z,1964
2022-10-12T09:50:59.767Z,1984
2022-10-12T09:51:41.616Z,1996
2022-10-12T09:52:22.571Z,2100
2022-10-12T09:54:27.862Z,1816
2022-10-12T09:55:08.914Z,2036
2022-10-12T09:55:50.682Z,1788
2022-10-12T09:56:31.727Z,2036
2022-10-12T09:57:12.745Z,1804
2022-10-12T09:59:20.783Z,2044
2022-10-12T10:00:02.649Z,1848
2022-10-12T10:02:08.220Z,1812
2022-10-12T10:02:49.277Z,1920
2022-10-12T10:03:31.481Z,1884
2022-10-12T10:04:12.328Z,1792
2022-10-12T10:07:37.847Z,1572
2022-10-12T10:08:18.907Z,1548
2022-10-12T10:09:00.017Z,1372
2022-10-12T10:09:41.055Z,1444
2022-10-12T10:10:26.871Z,1440
2022-10-12T10:13:07.979Z,1524
2022-10-12T10:13:49.233Z,1524
2022-10-12T10:14:30.209Z,1540
2022-10-12T10:15:12.481Z,1588
2022-10-12T10:16:00.334Z,1584
2022-10-12T10:22:35.852Z,1144
2022-10-12T10:23:17.013Z,1140
2022-10-12T10:23:59.572Z,1116
2022-10-12T10:24:40.632Z,1096
2022-10-12T10:26:03.423Z,1032
2022-10-12T10:26:44.767Z,1028
2022-10-12T10:27:27.059Z,1024
2022-10-12T10:28:08.401Z,1016
2022-10-12T10:30:29.364Z,1124
2022-10-12T10:30:56.588Z,1200
2022-10-12T10:31:37.688Z,1236
2022-10-12T10:32:18.830Z,1268
2022-10-12T10:36:36.507Z,1292
2022-10-12T10:37:17.325Z,1288
2022-10-12T10:37:57.776Z,1228
2022-10-12T10:38:38.309Z,1232
2022-10-12T10:42:24.304Z,1360
2022-10-12T10:46:42.323Z,1580
2022-10-12T10:47:22.806Z,1536
2022-10-12T10:48:03.270Z,1496
2022-10-12T10:48:43.944Z,1388
2022-10-12T10:49:24.296Z,1244
2022-10-12T10:50:04.759Z,1184
2022-10-12T10:54:49.642Z,1220
2022-10-12T10:55:31.920Z,1252
2022-10-12T10:56:12.431Z,1248
2022-10-12T10:56:52.898Z,1340
2022-10-12T11:01:03.432Z,1240
2022-10-12T11:01:44.702Z,1324
2022-10-12T11:02:25.992Z,1340
2022-10-12T11:03:07.184Z,1336
2022-10-12T11:03:51.288Z,1284
2022-10-12T11:08:16.016Z,1328
2022-10-12T11:08:55.220Z,1304
2022-10-12T11:09:35.807Z,1316
2022-10-12T11:10:16.493Z,1344
2022-10-12T11:10:56.977Z,1436
2022-10-12T11:11:38.154Z,1432
2022-10-12T11:12:59.241Z,1460
2022-10-12T11:20:09.599Z,1440
2022-10-12T11:20:50.037Z,1468
2022-10-12T11:21:30.734Z,1372
2022-10-12T11:22:11.278Z,1368
2022-10-12T11:22:51.772Z,1288
2022-10-12T11:23:32.397Z,1268
2022-10-12T11:24:14.465Z,1284
2022-10-12T11:27:00.149Z,1332
2022-10-12T11:27:41.415Z,1304
2022-10-12T11:28:22.000Z,1272
2022-10-12T11:29:03.375Z,1296
2022-10-12T11:29:44.302Z,1252
2022-10-12T11:32:30.501Z,1240
2022-10-12T11:33:11.392Z,1244
2022-10-12T11:33:52.514Z,1244
2022-10-12T11:34:33.023Z,1276
2022-10-12T11:35:13.551Z,1284
2022-10-12T11:41:34.754Z,1360
2022-10-12T11:42:20.179Z,1348
2022-10-12T11:42:43.354Z,1332
2022-10-12T11:43:21.021Z,1308
2022-10-12T11:44:01.640Z,1320
2022-10-12T11:44:42.151Z,1312
2022-10-12T11:45:22.814Z,1304
2022-10-12T11:48:57.028Z,1396
2022-10-12T11:49:37.554Z,1408
2022-10-12T11:50:18.085Z,1388
2022-10-12T11:51:02.974Z,1412
2022-10-12T11:51:39.278Z,1424
2022-10-12T11:52:19.833Z,1480
2022-10-12T11:53:00.487Z,1488
2022-10-12T12:31:57.435Z,1156
2022-10-12T12:32:39.337Z,1160
2022-10-12T12:33:20.289Z,1160
2022-10-12T12:34:03.245Z,1164
2022-10-12T12:36:57.819Z,1268
2022-10-12T12:37:38.498Z,1304
2022-10-12T12:38:18.767Z,1328
2022-10-12T12:38:59.370Z,1352
2022-10-12T12:39:40.190Z,1372
2022-10-12T12:40:21.400Z,1396
2022-10-12T12:41:01.747Z,1412
2022-10-12T12:45:07.581Z,1560
2022-10-12T12:45:47.976Z,1484
2022-10-12T12:46:28.845Z,1496
2022-10-12T12:47:50.201Z,1504
2022-10-12T12:48:30.700Z,1464
2022-10-12T12:49:11.407Z,1576
2022-10-12T12:49:52.086Z,1604
2022-10-12T12:54:37.390Z,1556
2022-10-12T12:55:17.976Z,1700
2022-10-12T12:55:59.000Z,1716
2022-10-12T12:56:39.463Z,1656
2022-10-12T12:57:20.108Z,1644
2022-10-12T12:58:00.524Z,1504
2022-10-12T12:58:41.046Z,1404
2022-10-12T12:59:21.623Z,1464
2022-10-12T13:00:02.269Z,1416
2022-10-12T13:05:27.384Z,1304
2022-10-12T13:06:07.946Z,1292
2022-10-12T13:06:48.507Z,1288
2022-10-12T13:07:29.199Z,1292
2022-10-12T13:08:09.498Z,1296
2022-10-12T13:08:50.032Z,1284
2022-10-12T13:09:30.607Z,1324
2022-10-12T13:10:11.117Z,1304
2022-10-12T13:10:51.636Z,1284
2022-10-12T13:11:32.178Z,1384
2022-10-12T13:12:12.775Z,1272
2022-10-12T13:17:45.239Z,1552
2022-10-12T13:18:45.628Z,1504
2022-10-12T13:19:08.254Z,1464
2022-10-12T13:19:49.669Z,1420
2022-10-12T13:20:32.318Z,1504
2022-10-12T13:21:13.778Z,1452
2022-10-12T13:32:38.626Z,1204
2022-10-12T13:33:20.910Z,1148
2022-10-12T13:34:01.962Z,1056
2022-10-12T13:34:42.896Z,1112
2022-10-12T13:35:24.006Z,1116
2022-10-12T13:36:05.793Z,1108
2022-10-12T13:36:46.972Z,1084
2022-10-12T13:38:51.739Z,952
2022-10-12T13:39:37.773Z,944
2022-10-12T13:40:14.092Z,956
2022-10-12T13:40:55.383Z,992
2022-10-12T13:41:39.334Z,1020
2022-10-12T13:44:58.961Z,1024
2022-10-12T13:45:40.160Z,1020
2022-10-12T13:46:22.211Z,1000
2022-10-12T13:47:06.684Z,992
2022-10-12T13:47:46.958Z,980
2022-10-12T13:48:46.828Z,964
2022-10-12T13:49:09.180Z,956
2022-10-12T13:52:31.784Z,904
2022-10-12T13:53:07.757Z,892
2022-10-12T13:53:48.137Z,876
2022-10-12T13:58:19.611Z,748
2022-10-12T13:59:00.024Z,740
2022-10-12T13:59:40.605Z,736
2022-10-12T14:00:21.217Z,736
2022-10-12T14:01:03.119Z,732
2022-10-12T14:01:43.578Z,736
2022-10-12T14:02:24.090Z,752
2022-10-12T14:09:09.408Z,656
2022-10-12T14:12:25.539Z,668
2022-10-12T14:13:03.804Z,676
2022-10-12T14:13:44.269Z,684
2022-10-12T14:14:24.818Z,692
2022-10-12T14:15:07.395Z,696
2022-10-12T14:15:48.842Z,708
2022-10-12T14:21:13.078Z,780
2022-10-12T14:21:53.528Z,776
2022-10-12T14:22:34.092Z,788
2022-10-12T14:23:14.787Z,812
2022-10-12T14:23:55.186Z,816
2022-10-12T14:24:35.830Z,808
2022-10-12T14:25:16.291Z,816
2022-10-12T14:26:37.263Z,824
2022-10-12T14:27:17.846Z,832
2022-10-12T14:34:03.015Z,920
2022-10-12T14:34:43.498Z,920
2022-10-12T14:35:24.024Z,920
2022-10-12T14:36:04.457Z,932
2022-10-12T14:36:44.975Z,932
2022-10-12T14:37:25.503Z,928
2022-10-12T14:38:06.032Z,868
2022-10-12T14:38:46.514Z,908
2022-10-12T14:39:27.122Z,900
2022-10-12T14:42:41.392Z,860
2022-10-12T14:43:22.032Z,860
2022-10-12T14:44:04.496Z,884
2022-10-12T14:44:43.360Z,900
2022-10-12T14:45:23.803Z,912
2022-10-12T14:46:04.608Z,912
2022-10-12T14:50:10.686Z,936
2022-10-12T14:50:51.894Z,960
2022-10-12T14:51:32.394Z,980
2022-10-12T14:52:12.889Z,1024
2022-10-12T14:52:53.420Z,1084
2022-10-12T14:53:34.533Z,1128
2022-10-12T14:54:15.282Z,1140
2022-10-12T14:59:00.883Z,5416
2022-10-12T14:59:41.403Z,5308
2022-10-12T15:00:21.858Z,5104
2022-10-12T15:04:07.908Z,5608
2022-10-12T15:04:48.439Z,5480
2022-10-12T15:05:29.126Z,5420
2022-10-12T15:06:10.128Z,5236
2022-10-12T15:07:31.617Z,3108
2022-10-12T15:08:12.142Z,2036
2022-10-12T15:08:52.502Z,1456
2022-10-12T15:14:17.626Z,1260
2022-10-12T15:14:58.109Z,1224
2022-10-12T15:15:38.569Z,1176
2022-10-12T15:16:19.099Z,1124
2022-10-12T15:16:59.552Z,1136
2022-10-12T15:17:40.074Z,1136
2022-10-12T15:18:21.045Z,1156
2022-10-12T15:19:01.547Z,1156
2022-10-12T15:19:42.051Z,1136
2022-10-12T15:20:22.543Z,1108
2022-10-12T15:27:07.822Z,676
2022-10-12T15:27:48.386Z,600
2022-10-12T15:28:28.925Z,564
2022-10-12T15:29:09.370Z,580
2022-10-12T15:29:49.855Z,616
2022-10-12T15:30:30.357Z,608
2022-10-12T15:31:18.972Z,600
2022-10-12T15:31:51.424Z,584
2022-10-12T15:32:31.992Z,564
2022-10-12T15:33:12.356Z,552
2022-10-12T15:33:52.835Z,544
2022-10-12T15:40:38.006Z,420
2022-10-12T15:41:18.478Z,408
2022-10-12T15:41:59.028Z,400
2022-10-12T15:42:39.491Z,392
2022-10-12T15:43:19.997Z,384
2022-10-12T15:44:00.482Z,372
2022-10-12T15:44:41.014Z,364
2022-10-12T15:45:21.558Z,356
2022-10-12T15:46:02.060Z,352
2022-10-12T15:46:42.541Z,344
2022-10-12T15:52:47.656Z,328
2022-10-12T15:53:28.171Z,324
2022-10-12T15:54:08.656Z,324
2022-10-12T15:54:49.172Z,324
2022-10-12T15:55:29.668Z,324
2022-10-12T15:56:10.178Z,320
2022-10-12T15:56:50.592Z,320
2022-10-12T15:59:03.518Z,300
2022-10-12T15:59:44.085Z,296
2022-10-12T16:00:24.556Z,288
2022-10-12T16:01:05.100Z,280
2022-10-12T16:01:45.520Z,272
2022-10-12T16:02:26.020Z,268
2022-10-12T16:03:06.514Z,260
2022-10-12T16:03:47.067Z,256
2022-10-12T16:04:28.131Z,256
2022-10-12T16:09:55.247Z,228
2022-10-12T16:10:35.515Z,220
2022-10-12T16:11:15.936Z,216
2022-10-12T16:11:57.751Z,208
2022-10-12T16:12:37.735Z,204
2022-10-12T16:13:18.954Z,192
2022-10-12T16:19:23.480Z,140
2022-10-12T16:20:03.929Z,136
2022-10-12T16:20:45.248Z,132
2022-10-12T16:21:24.919Z,132
2022-10-12T16:22:05.419Z,132
2022-10-12T16:22:45.962Z,132
2022-10-12T16:23:26.391Z,132
2022-10-12T16:24:06.923Z,128
2022-10-12T16:24:47.412Z,128
2022-10-12T16:28:53.427Z,100
2022-10-12T16:29:33.939Z,96
2022-10-12T16:30:14.472Z,88
2022-10-12T16:30:55.031Z,84
2022-10-12T16:31:35.582Z,80
2022-10-12T16:32:16.276Z,76
2022-10-12T16:32:56.520Z,72
2022-10-12T16:33:37.280Z,68
2022-10-12T16:34:17.752Z,60
2022-10-12T16:34:58.197Z,56
2022-10-12T16:41:43.643Z,36
2022-10-12T16:42:24.183Z,32
2022-10-12T16:43:04.724Z,32
2022-10-12T16:43:45.190Z,32
2022-10-12T16:44:25.671Z,32
2022-10-12T16:45:06.184Z,28
2022-10-12T16:45:46.665Z,28
2022-10-12T16:46:27.382Z,24
2022-10-12T16:47:07.833Z,24
2022-10-12T16:50:33.447Z,16
2022-10-12T16:51:13.932Z,16
2022-10-12T16:51:54.431Z,16
2022-10-12T16:52:34.942Z,12
2022-10-12T16:53:15.581Z,12
2022-10-12T16:53:56.127Z,8
2022-10-12T16:54:36.529Z,8
2022-10-12T16:55:17.727Z,12
2022-10-12T16:55:58.207Z,8
2022-10-12T16:59:19.499Z,8
2022-10-12T16:59:59.707Z,4
2022-10-12T17:00:41.146Z,4
2022-10-12T17:01:21.669Z,4
2022-10-12T17:02:02.084Z,0
2022-10-12T17:02:42.583Z,4
2022-10-12T17:03:23.011Z,4
2022-10-12T17:04:03.488Z,4
2022-10-12T17:04:44.129Z,4
2022-10-12T17:10:48.890Z,0
2022-10-12T17:11:29.478Z,0
2022-10-12T17:12:09.932Z,0
2022-10-12T17:12:50.453Z,0
2022-10-12T17:13:30.930Z,0
2022-10-12T17:14:11.500Z,0
2022-10-12T17:15:32.546Z,0
2022-10-12T17:16:13.431Z,0
2022-10-12T17:16:53.915Z,0
2022-10-12T17:21:39.755Z,0
2022-10-12T17:22:20.184Z,0
2022-10-12T17:23:00.462Z,0
2022-10-12T17:23:40.950Z,0
2022-10-12T17:24:21.442Z,0
2022-10-12T17:25:01.947Z,0
2022-10-12T17:25:42.460Z,0
2022-10-12T17:26:23.537Z,0
2022-10-12T17:31:11.625Z,0
2022-10-12T17:31:49.419Z,0
2022-10-12T17:32:29.907Z,0
2022-10-12T17:33:10.414Z,0
2022-10-12T17:35:25.125Z,0
2022-10-12T17:36:06.187Z,0
2022-10-12T17:36:46.639Z,0
2022-10-12T17:37:27.574Z,0
2022-10-12T17:38:08.361Z,0
2022-10-12T17:38:48.983Z,0
2022-10-12T17:39:29.462Z,0
2022-10-12T17:44:55.318Z,0
2022-10-12T17:45:35.421Z,0
2022-10-12T17:46:18.955Z,0
2022-10-12T17:46:56.626Z,0
2022-10-12T17:47:37.126Z,0
2022-10-12T17:48:17.590Z,0
2022-10-12T17:48:58.093Z,0
2022-10-12T17:49:38.580Z,0
2022-10-12T17:50:19.137Z,0
2022-10-12T17:51:00.117Z,0
2022-10-12T18:33:50.203Z,0
2022-10-12T18:34:34.315Z,0
2022-10-12T18:35:11.199Z,0
2022-10-12T18:35:51.679Z,0
2022-10-12T18:36:32.151Z,0
2022-10-12T18:37:12.621Z,0
2022-10-12T18:37:53.113Z,0
2022-10-12T18:38:33.821Z,0
2022-10-12T18:39:14.195Z,0
2022-10-12T18:39:54.666Z,0
2022-10-12T18:47:24.172Z,0
2022-10-12T18:48:00.774Z,0
2022-10-12T18:48:41.210Z,0
2022-10-12T18:49:21.750Z,0
2022-10-12T18:50:03.155Z,0
2022-10-12T18:50:43.679Z,0
2022-10-12T18:51:24.323Z,0
2022-10-12T18:52:04.883Z,0
2022-10-12T18:58:49.955Z,0
2022-10-12T18:59:30.497Z,0
2022-10-12T19:00:10.948Z,0
2022-10-12T19:00:51.375Z,0
2022-10-12T19:01:31.903Z,0
2022-10-12T19:02:12.380Z,0
2022-10-12T19:02:52.834Z,0
2022-10-12T19:03:33.382Z,0
2022-10-12T19:04:13.820Z,0
2022-10-12T19:05:35.485Z,0
2022-10-12T19:11:40.005Z,0
2022-10-12T19:12:20.794Z,0
2022-10-12T19:13:00.991Z,0
2022-10-12T19:13:41.623Z,0
2022-10-12T19:14:22.183Z,0
2022-10-12T19:15:02.647Z,0
2022-10-12T19:15:43.172Z,0
2022-10-12T19:16:23.701Z,0
2022-10-12T19:17:04.238Z,0
2022-10-12T19:17:44.661Z,0
2022-10-12T19:18:25.150Z,0
2022-10-12T19:25:10.147Z,0
2022-10-12T19:25:50.653Z,0
2022-10-12T19:26:31.159Z,0
2022-10-12T19:27:11.656Z,0
2022-10-12T19:27:52.175Z,0
2022-10-12T19:28:32.769Z,0
2022-10-12T19:29:13.147Z,0
2022-10-12T19:30:34.437Z,0
2022-10-12T19:31:15.146Z,0
2022-10-12T19:37:20.284Z,0
2022-10-12T19:38:00.678Z,0
2022-10-12T19:38:41.193Z,0
2022-10-12T19:39:21.730Z,0
2022-10-12T19:40:06.705Z,0
2022-10-12T19:40:42.674Z,0
2022-10-12T19:41:23.156Z,0
2022-10-12T19:45:09.516Z,0
2022-10-12T19:45:49.887Z,0
2022-10-12T19:46:30.354Z,0
2022-10-12T19:47:10.818Z,0
2022-10-12T19:47:51.442Z,0
2022-10-12T19:48:31.866Z,0
2022-10-12T19:49:12.336Z,0
2022-10-12T19:49:52.855Z,0
2022-10-12T19:50:33.455Z,0
2022-10-12T19:51:14.222Z,0
2022-10-12T19:54:00.525Z,0
2022-10-12T19:54:39.534Z,0
2022-10-12T19:55:20.042Z,0
2022-10-12T19:56:01.709Z,0
2022-10-12T20:06:02.800Z,0
2022-10-12T20:06:43.328Z,0
2022-10-12T20:07:23.798Z,0
2022-10-12T20:08:04.304Z,0
2022-10-12T20:08:44.830Z,0
2022-10-12T20:09:25.294Z,0
2022-10-12T20:10:05.835Z,0
2022-10-12T20:10:46.453Z,0
2022-10-12T20:11:27.317Z,0
2022-10-12T20:12:07.669Z,0
2022-10-12T20:12:48.566Z,0
2022-10-12T20:15:33.022Z,0
2022-10-12T20:16:14.140Z,0
2022-10-12T20:16:54.616Z,0
2022-10-12T20:17:35.085Z,0
2022-10-12T20:18:15.588Z,0
2022-10-12T20:18:56.136Z,0
2022-10-12T20:19:36.794Z,0
2022-10-12T20:20:17.259Z,0
2022-10-12T20:20:57.989Z,0
2022-10-12T20:26:23.039Z,0
2022-10-12T20:27:03.536Z,0
2022-10-12T20:27:44.075Z,0
2022-10-12T20:28:24.825Z,0
2022-10-12T20:29:46.093Z,0
2022-10-12T20:30:26.568Z,0
2022-10-12T20:31:07.012Z,0
2022-10-12T20:31:47.644Z,0
2022-10-12T20:32:28.137Z,0
2022-10-12T20:38:33.198Z,0
2022-10-12T20:39:13.630Z,0
2022-10-12T20:39:54.100Z,0
2022-10-12T20:40:34.624Z,0
2022-10-12T20:41:15.094Z,0
2022-10-12T20:41:55.573Z,0
2022-10-12T20:42:36.064Z,0
2022-10-12T20:43:16.604Z,0
2022-10-12T20:43:57.025Z,0
2022-10-12T20:44:37.560Z,0
2022-10-12T20:45:18.075Z,0
2022-10-12T20:50:43.476Z,0
2022-10-12T20:51:24.006Z,0
2022-10-12T20:52:05.204Z,0
2022-10-12T20:52:45.687Z,0
2022-10-12T20:53:26.606Z,0
2022-10-12T20:54:07.239Z,0
2022-10-12T20:58:53.398Z,0
2022-10-12T20:59:33.902Z,0
2022-10-12T21:00:14.432Z,0
2022-10-12T21:00:55.024Z,0